createdAt,value
2022-12-07T00:00:51.821Z,3.80
2022-12-07T00:01:51.813Z,3.60
2022-12-07T00:02:51.839Z,3.10
2022-12-07T00:03:51.863Z,3.50
2022-12-07T00:04:51.750Z,3.40
2022-12-07T00:05:51.749Z,3.30
2022-12-07T00:06:51.749Z,2.90
2022-12-07T00:07:51.741Z,3.40
2022-12-07T00:08:51.711Z,3.50
2022-12-07T00:09:51.690Z,3.70
2022-12-07T00:10:51.679Z,3.00
2022-12-07T00:11:51.690Z,3.60
2022-12-07T00:12:51.661Z,3.60
2022-12-07T00:13:51.650Z,2.80
2022-12-07T00:14:51.640Z,3.60
2022-12-07T00:15:51.636Z,3.40
2022-12-07T00:16:51.746Z,3.80
2022-12-07T00:17:51.623Z,3.00
2022-12-07T00:18:51.598Z,2.70
2022-12-07T00:19:51.589Z,3.30
2022-12-07T00:20:51.572Z,3.20
2022-12-07T00:21:51.579Z,3.70
2022-12-07T00:22:51.550Z,3.30
2022-12-07T00:23:51.544Z,2.80
2022-12-07T00:24:51.531Z,3.20
2022-12-07T00:25:51.520Z,3.50
2022-12-07T00:26:51.530Z,3.20
2022-12-07T00:27:51.501Z,2.90
2022-12-07T00:28:51.482Z,3.10
2022-12-07T00:29:51.477Z,2.80
2022-12-07T00:30:51.462Z,2.60
2022-12-07T00:31:51.480Z,2.50
2022-12-07T00:32:51.460Z,2.20
2022-12-07T00:33:51.430Z,2.80
2022-12-07T00:34:51.420Z,2.90
2022-12-07T00:35:51.407Z,2.70
2022-12-07T00:36:51.424Z,3.20
2022-12-07T00:37:51.415Z,3.20
2022-12-07T00:38:51.371Z,3.00
2022-12-07T00:39:51.371Z,2.80
2022-12-07T00:40:51.351Z,2.90
2022-12-07T00:41:51.360Z,3.10
2022-12-07T00:42:51.330Z,2.70
2022-12-07T00:43:51.320Z,2.80
2022-12-07T00:44:51.301Z,3.00
2022-12-07T00:45:51.336Z,2.60
2022-12-07T00:46:51.303Z,2.80
2022-12-07T00:47:51.273Z,2.40
2022-12-07T00:48:51.281Z,2.80
2022-12-07T00:49:51.258Z,2.90
2022-12-07T00:50:51.241Z,3.00
2022-12-07T00:51:51.252Z,2.50
2022-12-07T00:52:51.219Z,2.60
2022-12-07T00:53:51.211Z,2.30
2022-12-07T00:54:51.192Z,3.10
2022-12-07T00:55:51.182Z,2.80
2022-12-07T00:56:51.192Z,2.90
2022-12-07T00:57:51.170Z,2.70
2022-12-07T00:58:51.152Z,2.50
2022-12-07T00:59:51.142Z,2.50
2022-12-07T01:00:51.130Z,2.70
2022-12-07T01:01:51.211Z,2.70
2022-12-07T01:02:51.139Z,2.60
2022-12-07T01:03:51.119Z,2.40
2022-12-07T01:04:51.083Z,2.80
2022-12-07T01:05:51.072Z,3.00
2022-12-07T01:06:51.081Z,2.90
2022-12-07T01:07:51.118Z,2.70
2022-12-07T01:08:51.040Z,2.50
2022-12-07T01:09:51.031Z,2.60
2022-12-07T01:10:51.021Z,2.50
2022-12-07T01:11:51.031Z,2.80
2022-12-07T01:12:50.999Z,2.80
2022-12-07T01:13:50.980Z,2.90
2022-12-07T01:14:50.993Z,2.80
2022-12-07T01:15:50.964Z,2.60
2022-12-07T01:16:51.011Z,2.60
2022-12-07T01:17:50.942Z,2.70
2022-12-07T01:18:50.931Z,2.60
2022-12-07T01:19:50.926Z,2.20
2022-12-07T01:20:50.911Z,2.70
2022-12-07T01:21:50.903Z,2.90
2022-12-07T01:22:50.911Z,2.50
2022-12-07T01:23:51.033Z,2.90
2022-12-07T01:24:50.882Z,2.50
2022-12-07T01:25:50.853Z,2.80
2022-12-07T01:26:50.844Z,2.70
2022-12-07T01:27:50.831Z,3.00
2022-12-07T01:28:50.829Z,2.80
2022-12-07T01:29:50.819Z,2.50
2022-12-07T01:30:50.886Z,3.00
2022-12-07T01:31:50.791Z,2.80
2022-12-07T01:32:50.792Z,3.00
2022-12-07T01:33:50.774Z,2.70
2022-12-07T01:34:50.751Z,2.60
2022-12-07T01:35:50.773Z,2.50
2022-12-07T01:36:50.731Z,2.80
2022-12-07T01:37:50.726Z,2.90
2022-12-07T01:38:50.712Z,2.70
2022-12-07T01:39:50.702Z,2.80
2022-12-07T01:40:50.692Z,2.90
2022-12-07T01:41:50.704Z,2.80
2022-12-07T01:42:50.664Z,2.40
2022-12-07T01:43:50.660Z,3.00
2022-12-07T01:44:50.643Z,2.40
2022-12-07T01:45:50.701Z,2.60
2022-12-07T01:46:50.644Z,2.90
2022-12-07T01:47:50.614Z,2.50
2022-12-07T01:48:50.603Z,2.50
2022-12-07T01:49:50.593Z,3.10
2022-12-07T01:50:50.578Z,2.70
2022-12-07T01:51:50.593Z,3.00
2022-12-07T01:52:50.554Z,2.90
2022-12-07T01:53:50.550Z,3.10
2022-12-07T01:54:50.532Z,2.80
2022-12-07T01:55:50.530Z,2.60
2022-12-07T01:56:50.543Z,3.00
2022-12-07T01:57:50.502Z,2.90
2022-12-07T01:58:50.493Z,2.90
2022-12-07T01:59:50.481Z,2.90
2022-12-07T02:00:50.497Z,2.60
2022-12-07T02:01:50.526Z,3.20
2022-12-07T02:02:50.521Z,2.60
2022-12-07T02:03:50.443Z,2.50
2022-12-07T02:04:50.424Z,2.50
2022-12-07T02:05:50.414Z,2.80
2022-12-07T02:06:50.403Z,3.10
2022-12-07T02:07:50.441Z,2.60
2022-12-07T02:08:50.406Z,2.50
2022-12-07T02:09:50.375Z,3.00
2022-12-07T02:10:50.363Z,2.70
2022-12-07T02:11:50.354Z,2.60
2022-12-07T02:12:50.342Z,2.60
2022-12-07T02:13:50.332Z,3.30
2022-12-07T02:14:50.333Z,2.50
2022-12-07T02:15:50.396Z,2.70
2022-12-07T02:16:50.293Z,2.60
2022-12-07T02:17:50.291Z,2.60
2022-12-07T02:18:50.303Z,3.30
2022-12-07T02:19:50.271Z,2.70
2022-12-07T02:20:50.254Z,3.20
2022-12-07T02:21:50.244Z,2.40
2022-12-07T02:22:50.232Z,2.80
2022-12-07T02:23:50.226Z,3.00
2022-12-07T02:24:50.235Z,3.10
2022-12-07T02:25:50.192Z,3.30
2022-12-07T02:26:50.183Z,2.80
2022-12-07T02:27:50.175Z,2.80
2022-12-07T02:28:50.162Z,3.40
2022-12-07T02:29:50.184Z,2.80
2022-12-07T02:30:50.195Z,2.80
2022-12-07T02:31:50.134Z,2.70
2022-12-07T02:32:50.119Z,2.50
2022-12-07T02:33:50.113Z,3.10
2022-12-07T02:34:50.095Z,2.70
2022-12-07T02:35:50.104Z,2.40
2022-12-07T02:36:50.082Z,2.60
2022-12-07T02:37:50.073Z,2.80
2022-12-07T02:38:50.054Z,3.10
2022-12-07T02:39:50.042Z,3.00
2022-12-07T02:40:50.053Z,2.70
2022-12-07T02:41:50.026Z,3.10
2022-12-07T02:42:50.014Z,2.80
2022-12-07T02:43:50.004Z,2.80
2022-12-07T02:44:49.984Z,2.90
2022-12-07T02:45:50.097Z,2.90
2022-12-07T02:46:50.039Z,2.50
2022-12-07T02:47:49.952Z,2.80
2022-12-07T02:48:49.944Z,2.80
2022-12-07T02:49:49.944Z,2.70
2022-12-07T02:50:49.930Z,3.00
2022-12-07T02:51:49.934Z,3.30
2022-12-07T02:52:49.903Z,2.60
2022-12-07T02:53:49.894Z,2.50
2022-12-07T02:54:49.873Z,3.30
2022-12-07T02:55:49.875Z,2.40
2022-12-07T02:56:49.901Z,2.50
2022-12-07T02:57:49.843Z,2.70
2022-12-07T02:58:49.834Z,3.00
2022-12-07T02:59:49.826Z,2.80
2022-12-07T03:00:49.815Z,2.40
2022-12-07T03:01:49.849Z,2.60
2022-12-07T03:02:49.842Z,3.00
2022-12-07T03:03:49.785Z,3.40
2022-12-07T03:04:49.774Z,2.60
2022-12-07T03:05:49.763Z,3.10
2022-12-07T03:06:49.775Z,2.70
2022-12-07T03:07:49.859Z,2.60
2022-12-07T03:08:49.724Z,3.20
2022-12-07T03:09:49.718Z,3.00
2022-12-07T03:10:49.711Z,2.40
2022-12-07T03:11:49.692Z,3.10
2022-12-07T03:12:49.703Z,3.00
2022-12-07T03:13:49.675Z,2.60
2022-12-07T03:14:49.664Z,2.60
2022-12-07T03:15:49.706Z,2.60
2022-12-07T03:16:49.666Z,2.70
2022-12-07T03:17:49.653Z,2.90
2022-12-07T03:18:49.614Z,2.60
2022-12-07T03:19:49.634Z,3.10
2022-12-07T03:20:49.601Z,3.40
2022-12-07T03:21:49.593Z,2.90
2022-12-07T03:22:49.603Z,2.80
2022-12-07T03:23:49.571Z,2.90
2022-12-07T03:24:49.555Z,2.90
2022-12-07T03:25:49.549Z,2.50
2022-12-07T03:26:49.533Z,2.60
2022-12-07T03:27:49.552Z,2.60
2022-12-07T03:28:49.513Z,3.20
2022-12-07T03:29:49.503Z,2.70
2022-12-07T03:30:49.595Z,2.70
2022-12-07T03:31:49.474Z,2.60
2022-12-07T03:32:49.464Z,2.60
2022-12-07T03:33:49.492Z,2.80
2022-12-07T03:34:49.441Z,2.30
2022-12-07T03:35:49.462Z,2.70
2022-12-07T03:36:49.421Z,3.10
2022-12-07T03:37:49.411Z,2.70
2022-12-07T03:38:49.403Z,2.90
2022-12-07T03:39:49.414Z,2.70
2022-12-07T03:40:49.382Z,2.70
2022-12-07T03:41:49.364Z,2.50
2022-12-07T03:42:49.361Z,2.90
2022-12-07T03:43:49.372Z,2.80
2022-12-07T03:44:49.332Z,3.00
2022-12-07T03:45:49.334Z,2.70
2022-12-07T03:46:49.359Z,2.40
2022-12-07T03:47:49.310Z,2.70
2022-12-07T03:48:49.298Z,2.30
2022-12-07T03:49:49.306Z,2.70
2022-12-07T03:50:49.272Z,2.50
2022-12-07T03:51:49.261Z,2.90
2022-12-07T03:52:49.244Z,2.60
2022-12-07T03:53:49.243Z,2.50
2022-12-07T03:54:49.253Z,2.80
2022-12-07T03:55:49.232Z,3.10
2022-12-07T03:56:49.213Z,2.50
2022-12-07T03:57:49.201Z,2.90
2022-12-07T03:58:49.182Z,3.20
2022-12-07T03:59:49.203Z,3.00
2022-12-07T04:00:49.183Z,2.60
2022-12-07T04:01:49.196Z,2.40
2022-12-07T04:02:49.215Z,3.10
2022-12-07T04:03:49.133Z,2.70
2022-12-07T04:04:49.115Z,2.90
2022-12-07T04:05:49.134Z,2.70
2022-12-07T04:06:49.122Z,2.80
2022-12-07T04:07:49.186Z,2.50
2022-12-07T04:08:49.072Z,2.50
2022-12-07T04:09:49.062Z,2.80
2022-12-07T04:10:49.055Z,2.60
2022-12-07T04:11:49.062Z,2.70
2022-12-07T04:12:49.032Z,2.70
2022-12-07T04:13:49.022Z,2.50
2022-12-07T04:14:49.012Z,2.10
2022-12-07T04:15:49.079Z,2.50
2022-12-07T04:16:49.035Z,3.10
2022-12-07T04:17:49.001Z,2.20
2022-12-07T04:18:48.971Z,2.60
2022-12-07T04:19:48.953Z,2.40
2022-12-07T04:20:48.973Z,2.30
2022-12-07T04:21:48.932Z,2.30
2022-12-07T04:22:48.921Z,2.20
2022-12-07T04:23:48.911Z,2.70
2022-12-07T04:24:48.901Z,2.40
2022-12-07T04:25:48.913Z,2.70
2022-12-07T04:26:48.887Z,2.10
2022-12-07T04:27:48.871Z,1.90
2022-12-07T04:28:48.861Z,2.30
2022-12-07T04:29:48.846Z,2.20
2022-12-07T04:30:48.861Z,2.50
2022-12-07T04:31:48.875Z,1.70
2022-12-07T04:32:48.816Z,3.10
2022-12-07T04:33:48.805Z,2.20
2022-12-07T04:34:52.693Z,2.20
2022-12-07T04:35:49.802Z,2.20
2022-12-07T04:36:48.771Z,2.10
2022-12-07T04:37:48.755Z,2.20
2022-12-07T04:38:48.759Z,1.60
2022-12-07T04:39:48.734Z,2.20
2022-12-07T04:40:48.753Z,2.40
2022-12-07T04:41:48.715Z,2.10
2022-12-07T04:42:48.703Z,2.00
2022-12-07T04:43:48.692Z,1.70
2022-12-07T04:44:48.681Z,1.90
2022-12-07T04:45:48.694Z,2.10
2022-12-07T04:46:48.715Z,2.30
2022-12-07T04:47:48.652Z,1.60
2022-12-07T04:48:48.644Z,1.80
2022-12-07T04:50:03.655Z,1.90
2022-12-07T04:50:48.642Z,1.90
2022-12-07T04:51:48.611Z,1.80
2022-12-07T04:52:48.593Z,2.10
2022-12-07T04:53:48.612Z,1.90
2022-12-07T04:54:48.571Z,1.80
2022-12-07T04:55:48.563Z,1.80
2022-12-07T04:56:48.573Z,1.80
2022-12-07T04:57:48.545Z,1.90
2022-12-07T04:58:48.534Z,1.90
2022-12-07T04:59:48.523Z,1.60
2022-12-07T05:00:48.579Z,1.80
2022-12-07T05:01:48.625Z,1.60
2022-12-07T05:02:48.491Z,1.60
2022-12-07T05:03:48.510Z,1.70
2022-12-07T05:04:48.462Z,1.90
2022-12-07T05:05:48.453Z,1.70
2022-12-07T05:06:48.442Z,2.00
2022-12-07T05:07:48.486Z,1.80
2022-12-07T05:08:48.429Z,1.70
2022-12-07T05:09:48.423Z,1.80
2022-12-07T05:10:48.404Z,2.10
2022-12-07T05:11:48.422Z,2.00
2022-12-07T05:12:48.375Z,1.70
2022-12-07T05:13:48.375Z,1.50
2022-12-07T05:14:48.354Z,1.40
2022-12-07T05:15:48.353Z,1.70
2022-12-07T05:16:48.471Z,1.80
2022-12-07T05:17:48.341Z,1.50
2022-12-07T05:18:48.315Z,1.60
2022-12-07T05:19:48.303Z,1.60
2022-12-07T05:20:48.292Z,2.10
2022-12-07T05:21:48.289Z,2.10
2022-12-07T05:22:48.302Z,1.60
2022-12-07T05:23:48.254Z,1.50
2022-12-07T05:24:48.250Z,1.50
2022-12-07T05:25:48.239Z,1.40
2022-12-07T05:26:48.223Z,1.70
2022-12-07T05:27:48.242Z,1.60
2022-12-07T05:28:48.228Z,1.30
2022-12-07T05:29:48.191Z,1.80
2022-12-07T05:30:48.192Z,2.00
2022-12-07T05:31:48.210Z,1.50
2022-12-07T05:32:48.183Z,1.30
2022-12-07T05:33:48.150Z,1.60
2022-12-07T05:34:48.147Z,1.60
2022-12-07T05:35:48.125Z,1.30
2022-12-07T05:36:48.114Z,1.70
2022-12-07T05:37:48.124Z,1.60
2022-12-07T05:38:48.100Z,1.10
2022-12-07T05:39:48.082Z,1.40
2022-12-07T05:40:48.074Z,1.50
2022-12-07T05:41:48.063Z,1.40
2022-12-07T05:42:48.080Z,1.60
2022-12-07T05:43:48.043Z,1.60
2022-12-07T05:44:48.030Z,1.40
2022-12-07T05:45:48.032Z,1.80
2022-12-07T05:46:48.004Z,1.20
2022-12-07T05:47:48.022Z,1.30
2022-12-07T05:48:47.983Z,1.90
2022-12-07T05:49:47.973Z,1.20
2022-12-07T05:50:47.966Z,1.70
2022-12-07T05:51:47.953Z,1.20
2022-12-07T05:52:47.948Z,1.30
2022-12-07T05:53:47.952Z,1.10
2022-12-07T05:54:47.933Z,1.40
2022-12-07T05:55:47.910Z,1.10
2022-12-07T05:56:47.894Z,1.00
2022-12-07T05:57:47.883Z,1.50
2022-12-07T05:58:47.874Z,1.40
2022-12-07T05:59:47.885Z,1.40
2022-12-07T06:00:51.055Z,1.70
2022-12-07T06:01:47.862Z,1.30
2022-12-07T06:02:48.009Z,1.40
2022-12-07T06:03:47.822Z,1.10
2022-12-07T06:04:47.833Z,1.40
2022-12-07T06:05:47.858Z,1.30
2022-12-07T06:06:47.802Z,1.30
2022-12-07T06:07:47.858Z,1.00
2022-12-07T06:08:47.772Z,1.20
2022-12-07T06:09:47.773Z,1.50
2022-12-07T06:10:47.745Z,1.60
2022-12-07T06:11:47.732Z,1.90
2022-12-07T06:12:47.729Z,1.20
2022-12-07T06:13:47.711Z,1.70
2022-12-07T06:14:47.731Z,1.60
2022-12-07T06:15:47.692Z,1.80
2022-12-07T06:16:47.718Z,3.30
2022-12-07T06:17:47.663Z,4.30
2022-12-07T06:18:47.661Z,1.80
2022-12-07T06:19:47.672Z,1.30
2022-12-07T06:20:47.642Z,1.60
2022-12-07T06:21:47.623Z,1.30
2022-12-07T06:22:47.626Z,1.30
2022-12-07T06:23:47.601Z,1.00
2022-12-07T06:24:47.615Z,1.20
2022-12-07T06:25:47.582Z,1.20
2022-12-07T06:26:47.571Z,1.10
2022-12-07T06:27:47.562Z,1.30
2022-12-07T06:28:47.554Z,1.10
2022-12-07T06:29:47.541Z,1.10
2022-12-07T06:30:47.554Z,1.20
2022-12-07T06:31:47.574Z,1.10
2022-12-07T06:32:47.507Z,0.90
2022-12-07T06:33:47.508Z,1.30
2022-12-07T06:34:47.484Z,1.30
2022-12-07T06:35:47.502Z,1.30
2022-12-07T06:36:47.462Z,1.20
2022-12-07T06:37:47.452Z,1.10
2022-12-07T06:38:47.442Z,1.20
2022-12-07T06:39:47.432Z,1.20
2022-12-07T06:40:47.469Z,0.80
2022-12-07T06:41:47.413Z,1.20
2022-12-07T06:42:47.403Z,0.70
2022-12-07T06:43:50.193Z,1.20
2022-12-07T06:44:48.402Z,0.90
2022-12-07T06:45:47.446Z,0.90
2022-12-07T06:46:47.352Z,0.80
2022-12-07T06:47:47.343Z,0.80
2022-12-07T06:48:47.344Z,1.20
2022-12-07T06:49:47.341Z,1.10
2022-12-07T06:50:52.788Z,1.40
2022-12-07T06:51:48.302Z,0.90
2022-12-07T06:52:47.295Z,1.20
2022-12-07T06:53:47.283Z,1.20
2022-12-07T06:54:47.274Z,0.80
2022-12-07T06:55:47.282Z,1.10
2022-12-07T06:56:47.242Z,1.10
2022-12-07T06:57:47.237Z,1.30
2022-12-07T06:58:47.222Z,1.30
2022-12-07T06:59:47.214Z,1.20
2022-12-07T07:00:47.311Z,1.20
2022-12-07T07:01:47.262Z,1.20
2022-12-07T07:02:47.261Z,1.40
2022-12-07T07:03:47.170Z,1.00
2022-12-07T07:04:47.161Z,1.00
2022-12-07T07:05:47.143Z,1.20
2022-12-07T07:06:47.161Z,0.90
2022-12-07T07:08:20.441Z,1.10
2022-12-07T07:08:48.168Z,1.40
2022-12-07T07:09:47.104Z,1.40
2022-12-07T07:10:47.093Z,1.20
2022-12-07T07:11:47.084Z,0.80
2022-12-07T07:12:47.718Z,1.20
2022-12-07T07:13:47.063Z,1.40
2022-12-07T07:14:47.052Z,0.90
2022-12-07T07:15:47.063Z,1.40
2022-12-07T07:16:47.062Z,1.20
2022-12-07T07:17:47.013Z,1.20
2022-12-07T07:18:47.004Z,1.10
2022-12-07T07:19:46.994Z,1.10
2022-12-07T07:20:46.991Z,0.90
2022-12-07T07:21:46.994Z,1.20
2022-12-07T07:22:46.966Z,1.20
2022-12-07T07:23:46.955Z,1.10
2022-12-07T07:24:46.943Z,1.00
2022-12-07T07:25:46.933Z,0.90
2022-12-07T07:26:46.924Z,1.00
2022-12-07T07:27:46.932Z,1.20
2022-12-07T07:28:46.904Z,1.30
2022-12-07T07:29:46.893Z,1.10
2022-12-07T07:30:46.920Z,1.00
2022-12-07T07:31:46.869Z,1.30
2022-12-07T07:32:46.893Z,0.90
2022-12-07T07:33:46.843Z,0.90
2022-12-07T07:34:46.841Z,1.40
2022-12-07T07:35:46.831Z,0.90
2022-12-07T07:36:46.849Z,1.20
2022-12-07T07:37:46.802Z,1.20
2022-12-07T07:38:46.815Z,1.50
2022-12-07T07:39:46.780Z,1.10
2022-12-07T07:40:46.764Z,1.10
2022-12-07T07:41:46.783Z,0.90
2022-12-07T07:42:46.750Z,1.10
2022-12-07T07:43:46.734Z,1.10
2022-12-07T07:44:46.755Z,1.40
2022-12-07T07:45:46.763Z,1.00
2022-12-07T07:46:46.709Z,1.00
2022-12-07T07:47:46.696Z,1.20
2022-12-07T07:48:46.685Z,1.10
2022-12-07T07:49:48.401Z,0.90
2022-12-07T07:50:46.686Z,1.00
2022-12-07T07:51:46.645Z,1.00
2022-12-07T07:52:46.643Z,1.10
2022-12-07T07:53:46.632Z,1.20
2022-12-07T07:54:46.622Z,1.40
2022-12-07T07:55:46.632Z,1.80
2022-12-07T07:56:46.600Z,1.40
2022-12-07T07:57:52.808Z,2.00
2022-12-07T07:58:47.573Z,1.40
2022-12-07T07:59:46.561Z,1.90
2022-12-07T08:00:46.574Z,1.30
2022-12-07T08:01:46.649Z,1.30
2022-12-07T08:02:46.535Z,1.10
2022-12-07T08:03:46.521Z,1.10
2022-12-07T08:04:46.555Z,1.20
2022-12-07T08:05:46.497Z,1.00
2022-12-07T08:06:46.517Z,1.60
2022-12-07T08:07:46.618Z,1.10
2022-12-07T08:08:46.465Z,1.00
2022-12-07T08:09:46.456Z,0.90
2022-12-07T08:10:46.442Z,1.10
2022-12-07T08:11:46.458Z,1.00
2022-12-07T08:12:46.423Z,1.20
2022-12-07T08:13:46.412Z,0.80
2022-12-07T08:14:46.401Z,0.90
2022-12-07T08:15:46.474Z,1.30
2022-12-07T08:16:46.412Z,1.00
2022-12-07T08:17:46.362Z,0.80
2022-12-07T08:18:46.362Z,1.00
2022-12-07T08:19:46.361Z,0.90
2022-12-07T08:20:46.330Z,1.10
2022-12-07T08:21:46.324Z,0.70
2022-12-07T08:22:46.334Z,0.90
2022-12-07T08:23:46.302Z,1.10
2022-12-07T08:24:46.301Z,1.00
2022-12-07T08:25:46.285Z,1.00
2022-12-07T08:26:46.273Z,1.00
2022-12-07T08:27:46.252Z,0.70
2022-12-07T08:28:46.270Z,0.70
2022-12-07T08:29:46.240Z,0.70
2022-12-07T08:30:46.295Z,1.00
2022-12-07T08:31:46.262Z,1.00
2022-12-07T08:32:46.202Z,1.10
2022-12-07T08:33:46.212Z,0.70
2022-12-07T08:34:46.182Z,1.10
2022-12-07T08:35:46.173Z,1.00
2022-12-07T08:36:46.161Z,1.20
2022-12-07T08:37:46.152Z,1.10
2022-12-07T08:39:07.811Z,1.20
2022-12-07T08:39:47.131Z,1.10
2022-12-07T08:40:46.111Z,1.00
2022-12-07T08:41:46.109Z,1.40
2022-12-07T08:42:46.092Z,1.60
2022-12-07T08:43:46.111Z,0.90
2022-12-07T08:44:46.074Z,1.20
2022-12-07T08:45:46.061Z,1.30
2022-12-07T08:46:46.115Z,1.10
2022-12-07T08:47:46.039Z,1.10
2022-12-07T08:48:46.045Z,1.00
2022-12-07T08:49:46.042Z,1.10
2022-12-07T08:50:49.520Z,1.20
2022-12-07T08:51:46.001Z,1.10
2022-12-07T08:52:46.003Z,1.20
2022-12-07T08:53:45.979Z,1.10
2022-12-07T08:54:45.966Z,1.10
2022-12-07T08:55:45.971Z,0.90
2022-12-07T08:56:45.939Z,1.00
2022-12-07T08:57:45.930Z,1.30
2022-12-07T08:58:45.912Z,0.80
2022-12-07T08:59:45.911Z,0.70
2022-12-07T09:00:45.925Z,1.10
2022-12-07T09:01:45.952Z,0.80
2022-12-07T09:02:45.872Z,1.10
2022-12-07T09:03:45.871Z,1.00
2022-12-07T09:04:45.854Z,0.90
2022-12-07T09:05:45.883Z,1.20
2022-12-07T09:06:46.042Z,0.90
2022-12-07T09:07:45.940Z,1.00
2022-12-07T09:08:45.823Z,0.70
2022-12-07T09:09:45.804Z,0.80
2022-12-07T09:10:45.781Z,0.70
2022-12-07T09:11:45.799Z,0.80
2022-12-07T09:12:45.787Z,1.00
2022-12-07T09:13:45.900Z,1.10
2022-12-07T09:14:45.742Z,0.70
2022-12-07T09:15:45.804Z,0.90
2022-12-07T09:16:45.742Z,0.90
2022-12-07T09:17:45.711Z,0.90
2022-12-07T09:18:45.693Z,0.90
2022-12-07T09:19:45.690Z,1.20
2022-12-07T09:20:45.672Z,0.90
2022-12-07T09:21:45.700Z,1.20
2022-12-07T09:22:45.655Z,0.90
2022-12-07T09:23:45.653Z,0.90
2022-12-07T09:24:45.645Z,0.80
2022-12-07T09:25:45.679Z,0.60
2022-12-07T09:26:45.629Z,0.70
2022-12-07T09:27:45.622Z,0.70
2022-12-07T09:28:45.592Z,0.60
2022-12-07T09:29:45.594Z,0.80
2022-12-07T09:31:21.071Z,0.90
2022-12-07T09:31:46.582Z,0.60
2022-12-07T09:32:45.563Z,0.90
2022-12-07T09:33:45.538Z,0.90
2022-12-07T09:34:45.565Z,0.90
2022-12-07T09:35:45.511Z,0.90
2022-12-07T09:36:45.499Z,0.80
2022-12-07T09:37:45.524Z,0.80
2022-12-07T09:38:45.478Z,1.40
2022-12-07T09:39:50.083Z,1.00
2022-12-07T09:40:46.452Z,0.90
2022-12-07T09:41:45.443Z,1.30
2022-12-07T09:42:45.468Z,0.90
2022-12-07T09:43:45.452Z,0.40
2022-12-07T09:44:45.410Z,1.40
2022-12-07T09:45:48.541Z,1.00
2022-12-07T09:46:45.417Z,1.10
2022-12-07T09:47:45.372Z,1.10
2022-12-07T09:48:45.390Z,0.60
2022-12-07T09:49:45.354Z,0.80
2022-12-07T09:50:45.345Z,0.90
2022-12-07T09:51:45.336Z,1.00
2022-12-07T09:52:45.324Z,1.00
2022-12-07T09:53:45.312Z,0.80
2022-12-07T09:54:45.321Z,1.10
2022-12-07T09:55:45.291Z,0.60
2022-12-07T09:56:45.272Z,0.90
2022-12-07T09:57:45.269Z,1.40
2022-12-07T09:58:45.254Z,0.30
2022-12-07T09:59:45.263Z,0.60
2022-12-07T10:00:45.230Z,0.80
2022-12-07T10:01:45.293Z,0.80
2022-12-07T10:02:45.210Z,0.80
2022-12-07T10:03:45.203Z,0.50
2022-12-07T10:04:45.255Z,0.80
2022-12-07T10:05:45.214Z,0.60
2022-12-07T10:06:45.170Z,0.60
2022-12-07T10:07:45.202Z,0.80
2022-12-07T10:08:45.141Z,1.10
2022-12-07T10:09:45.131Z,0.50
2022-12-07T10:10:45.124Z,0.90
2022-12-07T10:11:45.131Z,0.90
2022-12-07T10:12:45.101Z,0.80
2022-12-07T10:13:45.114Z,0.70
2022-12-07T10:15:06.186Z,0.70
2022-12-07T10:15:46.146Z,0.90
2022-12-07T10:16:45.091Z,0.70
2022-12-07T10:17:45.043Z,0.80
2022-12-07T10:18:45.063Z,0.40
2022-12-07T10:19:45.032Z,0.60
2022-12-07T10:20:45.011Z,0.80
2022-12-07T10:21:45.019Z,0.70
2022-12-07T10:22:44.985Z,0.80
2022-12-07T10:23:44.972Z,0.70
2022-12-07T10:24:45.029Z,0.60
2022-12-07T10:25:44.960Z,0.70
2022-12-07T10:26:44.944Z,0.50
2022-12-07T10:27:44.934Z,0.60
2022-12-07T10:28:44.924Z,0.80
2022-12-07T10:29:44.932Z,0.50
2022-12-07T10:30:44.904Z,0.90
2022-12-07T10:31:44.964Z,1.10
2022-12-07T10:32:44.882Z,0.80
2022-12-07T10:33:44.874Z,0.80
2022-12-07T10:34:50.469Z,0.50
2022-12-07T10:35:45.860Z,0.60
2022-12-07T10:36:44.841Z,0.60
2022-12-07T10:37:44.832Z,0.40
2022-12-07T10:38:44.813Z,0.70
2022-12-07T10:39:44.823Z,0.90
2022-12-07T10:40:46.668Z,0.70
2022-12-07T10:41:44.792Z,0.80
2022-12-07T10:42:44.772Z,0.70
2022-12-07T10:43:44.771Z,0.50
2022-12-07T10:44:44.776Z,0.70
2022-12-07T10:46:02.617Z,0.60
2022-12-07T10:46:45.778Z,0.50
2022-12-07T10:47:44.722Z,0.40
2022-12-07T10:48:44.712Z,0.80
2022-12-07T10:49:44.726Z,0.50
2022-12-07T10:50:44.684Z,0.70
2022-12-07T10:51:44.705Z,0.60
2022-12-07T10:52:44.664Z,0.70
2022-12-07T10:53:44.659Z,0.60
2022-12-07T10:54:44.645Z,0.90
2022-12-07T10:55:44.664Z,0.70
2022-12-07T10:56:48.194Z,0.50
2022-12-07T10:57:45.604Z,0.80
2022-12-07T10:58:44.621Z,0.50
2022-12-07T10:59:44.583Z,0.80
2022-12-07T11:00:44.632Z,1.00
2022-12-07T11:01:44.669Z,0.80
2022-12-07T11:02:44.591Z,0.80
2022-12-07T11:03:44.546Z,1.00
2022-12-07T11:04:44.534Z,0.80
2022-12-07T11:05:44.550Z,0.50
2022-12-07T11:06:44.505Z,0.60
2022-12-07T11:07:44.590Z,0.80
2022-12-07T11:08:44.488Z,0.90
2022-12-07T11:10:07.829Z,1.00
2022-12-07T11:10:45.490Z,0.80
2022-12-07T11:11:44.461Z,0.80
2022-12-07T11:12:44.443Z,0.80
2022-12-07T11:13:44.442Z,0.90
2022-12-07T11:14:44.426Z,0.60
2022-12-07T11:15:44.425Z,0.90
2022-12-07T11:16:44.499Z,1.00
2022-12-07T11:17:44.394Z,1.10
2022-12-07T11:18:44.384Z,0.80
2022-12-07T11:19:44.365Z,1.10
2022-12-07T11:20:44.356Z,1.00
2022-12-07T11:21:44.374Z,0.90
2022-12-07T11:22:44.337Z,0.60
2022-12-07T11:23:44.335Z,0.70
2022-12-07T11:24:44.318Z,0.80
2022-12-07T11:25:44.315Z,1.10
2022-12-07T11:26:44.342Z,1.20
2022-12-07T11:27:44.286Z,0.70
2022-12-07T11:28:44.276Z,1.00
2022-12-07T11:29:44.285Z,0.80
2022-12-07T11:30:44.254Z,1.00
2022-12-07T11:31:44.283Z,1.00
2022-12-07T11:32:44.234Z,0.90
2022-12-07T11:33:44.224Z,0.80
2022-12-07T11:34:44.205Z,0.80
2022-12-07T11:35:44.204Z,0.70
2022-12-07T11:36:44.207Z,1.00
2022-12-07T11:37:44.183Z,0.50
2022-12-07T11:38:44.166Z,0.80
2022-12-07T11:39:44.156Z,0.80
2022-12-07T11:40:44.138Z,1.10
2022-12-07T11:41:44.146Z,0.70
2022-12-07T11:42:44.118Z,0.70
2022-12-07T11:43:44.109Z,0.70
2022-12-07T11:44:44.099Z,0.60
2022-12-07T11:45:44.115Z,0.90
2022-12-07T11:46:44.131Z,0.50
2022-12-07T11:47:44.067Z,0.80
2022-12-07T11:48:44.057Z,0.60
2022-12-07T11:49:44.045Z,0.60
2022-12-07T11:50:44.055Z,1.20
2022-12-07T11:51:44.029Z,0.60
2022-12-07T11:52:44.046Z,0.50
2022-12-07T11:53:44.012Z,1.10
2022-12-07T11:54:43.987Z,0.70
2022-12-07T11:55:43.976Z,0.90
2022-12-07T11:56:43.985Z,0.90
2022-12-07T11:57:43.956Z,1.10
2022-12-07T11:58:43.936Z,0.70
2022-12-07T11:59:43.937Z,0.50
2022-12-07T12:00:43.916Z,0.60
2022-12-07T12:01:43.995Z,0.50
2022-12-07T12:02:43.958Z,0.60
2022-12-07T12:03:47.001Z,0.80
2022-12-07T12:04:44.869Z,0.50
2022-12-07T12:05:43.867Z,0.90
2022-12-07T12:06:43.859Z,0.60
2022-12-07T12:09:46.698Z,0.90
2022-12-07T12:10:44.809Z,0.50
2022-12-07T12:11:44.017Z,0.60
2022-12-07T12:14:48.148Z,0.70
2022-12-07T12:15:43.755Z,0.60
2022-12-07T12:16:43.783Z,0.70
2022-12-07T12:17:43.730Z,0.70
2022-12-07T12:18:43.747Z,0.70
2022-12-07T12:19:43.740Z,0.70
2022-12-07T12:20:43.701Z,0.70
2022-12-07T12:21:43.691Z,0.80
2022-12-07T12:22:43.680Z,0.70
2022-12-07T12:23:43.688Z,0.70
2022-12-07T12:24:43.651Z,0.90
2022-12-07T12:25:43.700Z,0.70
2022-12-07T12:26:43.630Z,0.60
2022-12-07T12:27:43.624Z,0.60
2022-12-07T12:28:48.636Z,0.70
2022-12-07T12:29:44.642Z,0.60
2022-12-07T12:30:43.603Z,0.70
2022-12-07T12:31:43.665Z,0.80
2022-12-07T12:32:43.563Z,0.90
2022-12-07T12:33:43.554Z,0.90
2022-12-07T12:34:50.100Z,0.80
2022-12-07T12:35:44.553Z,0.70
2022-12-07T12:36:43.600Z,0.90
2022-12-07T12:37:43.514Z,0.50
2022-12-07T12:38:43.512Z,0.40
2022-12-07T12:39:43.492Z,0.70
2022-12-07T12:40:50.035Z,0.60
2022-12-07T12:41:44.468Z,0.70
2022-12-07T12:42:43.451Z,0.70
2022-12-07T12:43:43.443Z,0.60
2022-12-07T12:44:43.433Z,0.50
2022-12-07T12:45:43.470Z,0.80
2022-12-07T12:46:49.305Z,0.50
2022-12-07T12:47:44.394Z,0.70
2022-12-07T12:48:43.388Z,0.80
2022-12-07T12:49:43.371Z,0.60
2022-12-07T12:50:43.391Z,0.70
2022-12-07T12:51:43.352Z,1.00
2022-12-07T12:52:48.779Z,0.80
2022-12-07T12:53:44.353Z,0.70
2022-12-07T12:54:43.315Z,0.60
2022-12-07T12:55:43.326Z,0.90
2022-12-07T12:56:43.294Z,0.50
2022-12-07T12:57:43.282Z,0.60
2022-12-07T12:58:43.297Z,0.60
2022-12-07T12:59:43.254Z,0.50
2022-12-07T13:00:43.253Z,0.50
2022-12-07T13:01:43.300Z,0.60
2022-12-07T13:02:43.306Z,0.70
2022-12-07T13:03:43.235Z,0.90
2022-12-07T13:04:43.206Z,0.60
2022-12-07T13:05:43.194Z,0.70
2022-12-07T13:06:43.182Z,1.40
2022-12-07T13:07:43.202Z,0.90
2022-12-07T13:08:43.165Z,0.70
2022-12-07T13:09:43.168Z,0.60
2022-12-07T13:10:43.164Z,0.70
2022-12-07T13:11:43.124Z,0.60
2022-12-07T13:12:43.115Z,0.60
2022-12-07T13:13:43.105Z,0.90
2022-12-07T13:14:43.094Z,1.00
2022-12-07T13:15:43.549Z,0.70
2022-12-07T13:16:43.152Z,0.60
2022-12-07T13:17:43.056Z,0.60
2022-12-07T13:18:43.053Z,0.50
2022-12-07T13:19:43.069Z,0.40
2022-12-07T13:20:43.036Z,0.40
2022-12-07T13:21:43.016Z,0.90
2022-12-07T13:22:43.034Z,0.90